createdAt,value
2023-05-17T00:00:41.203Z,40.57
2023-05-17T00:03:07.908Z,40.07
2023-05-17T00:05:34.366Z,40.17
2023-05-17T00:08:03.274Z,40.51
2023-05-17T00:10:30.004Z,40.30
2023-05-17T00:12:58.710Z,40.60
2023-05-17T00:15:25.317Z,40.40
2023-05-17T00:17:52.051Z,40.99
2023-05-17T00:20:21.106Z,40.41
2023-05-17T00:22:48.605Z,40.58
2023-05-17T00:25:15.469Z,40.43
2023-05-17T00:27:43.550Z,40.79
2023-05-17T00:30:10.531Z,40.80
2023-05-17T00:32:37.024Z,40.93
2023-05-17T00:35:04.432Z,41.00
2023-05-17T00:37:32.273Z,40.89
2023-05-17T00:39:58.905Z,40.59
2023-05-17T00:42:25.368Z,40.72
2023-05-17T00:44:51.898Z,40.92
2023-05-17T00:47:18.436Z,40.99
2023-05-17T00:49:46.224Z,41.17
2023-05-17T00:52:13.055Z,41.34
2023-05-17T00:54:40.474Z,41.16
2023-05-17T00:57:07.542Z,41.65
2023-05-17T00:59:34.267Z,41.49
2023-05-17T01:02:00.747Z,41.62
2023-05-17T01:04:27.897Z,41.45
2023-05-17T01:06:54.344Z,41.60
2023-05-17T01:09:20.963Z,41.65
2023-05-17T01:11:56.967Z,42.74
2023-05-17T01:14:43.012Z,42.82
2023-05-17T01:17:18.937Z,42.28
2023-05-17T01:19:57.879Z,42.46
2023-05-17T01:22:39.316Z,42.80
2023-05-17T01:25:23.487Z,42.81
2023-05-17T01:27:52.577Z,42.17
2023-05-17T01:30:20.686Z,42.17
2023-05-17T01:32:47.452Z,42.30
2023-05-17T01:35:14.453Z,42.56
2023-05-17T01:37:41.460Z,42.29
2023-05-17T01:40:09.878Z,42.70
2023-05-17T01:42:40.580Z,42.65
2023-05-17T01:45:24.696Z,42.79
2023-05-17T01:48:06.520Z,42.99
2023-05-17T01:50:34.624Z,42.54
2023-05-17T01:53:38.128Z,43.47
2023-05-17T01:56:10.465Z,42.95
2023-05-17T01:58:45.100Z,43.22
2023-05-17T02:01:14.610Z,42.60
2023-05-17T02:03:41.166Z,42.88
2023-05-17T02:06:08.199Z,42.73
2023-05-17T02:08:34.734Z,42.82
2023-05-17T02:11:01.189Z,42.84
2023-05-17T02:13:29.392Z,42.86
2023-05-17T02:16:00.475Z,43.40
2023-05-17T02:18:28.628Z,42.92
2023-05-17T02:20:55.414Z,42.83
2023-05-17T02:23:24.574Z,43.00
2023-05-17T02:25:51.099Z,43.12
2023-05-17T02:28:18.781Z,43.00
2023-05-17T02:30:46.284Z,42.68
2023-05-17T02:33:13.006Z,43.11
2023-05-17T02:35:39.722Z,43.03
2023-05-17T02:38:06.154Z,43.00
2023-05-17T02:40:32.796Z,43.21
2023-05-17T02:42:59.563Z,43.10
2023-05-17T02:45:29.092Z,43.01
2023-05-17T02:47:56.007Z,43.15
2023-05-17T02:50:22.667Z,43.29
2023-05-17T02:52:49.447Z,43.13
2023-05-17T02:55:16.460Z,43.51
2023-05-17T02:57:42.854Z,43.48
2023-05-17T03:00:10.139Z,43.46
2023-05-17T03:02:36.675Z,43.59
2023-05-17T03:05:04.870Z,43.42
2023-05-17T03:07:31.495Z,43.28
2023-05-17T03:09:57.881Z,43.35
2023-05-17T03:12:24.437Z,43.81
2023-05-17T03:14:50.785Z,43.82
2023-05-17T03:17:17.478Z,43.83
2023-05-17T03:19:45.251Z,43.97
2023-05-17T03:22:11.779Z,43.77
2023-05-17T03:24:38.130Z,44.22
2023-05-17T03:27:05.130Z,44.21
2023-05-17T03:29:31.584Z,44.51
2023-05-17T03:31:58.540Z,44.40
2023-05-17T03:34:25.187Z,44.42
2023-05-17T03:36:51.660Z,44.76
2023-05-17T03:39:18.343Z,44.65
2023-05-17T03:41:45.349Z,44.61
2023-05-17T03:44:12.012Z,44.64
2023-05-17T03:46:38.735Z,44.67
2023-05-17T03:49:05.931Z,44.63
2023-05-17T03:51:32.581Z,44.75
2023-05-17T03:54:00.217Z,44.87
2023-05-17T03:56:27.227Z,44.83
2023-05-17T03:58:53.691Z,45.10
2023-05-17T04:01:22.824Z,44.84
2023-05-17T04:03:49.682Z,45.18
2023-05-17T04:06:16.478Z,44.89
2023-05-17T04:08:42.876Z,45.04
2023-05-17T04:11:14.170Z,45.18
2023-05-17T04:13:43.183Z,45.11
2023-05-17T04:16:10.465Z,45.29
2023-05-17T04:18:38.127Z,45.31
2023-05-17T04:21:05.592Z,45.46
2023-05-17T04:23:34.330Z,45.49
2023-05-17T04:26:00.776Z,45.25
2023-05-17T04:28:27.378Z,45.70
2023-05-17T04:30:54.394Z,45.47
2023-05-17T04:33:20.938Z,45.91
2023-05-17T04:35:49.567Z,45.89
2023-05-17T04:38:16.203Z,46.29
2023-05-17T04:40:43.085Z,45.15
2023-05-17T04:43:10.775Z,45.82
2023-05-17T04:45:38.020Z,45.53
2023-05-17T04:48:04.953Z,45.43
2023-05-17T04:50:31.399Z,45.82
2023-05-17T04:52:57.790Z,45.83
2023-05-17T04:55:24.518Z,46.13
2023-05-17T04:57:51.347Z,45.88
2023-05-17T05:00:22.920Z,45.75
2023-05-17T05:02:50.253Z,45.74
2023-05-17T05:05:16.925Z,45.87
2023-05-17T05:07:43.377Z,46.43
2023-05-17T05:10:10.140Z,46.17
2023-05-17T05:12:37.770Z,45.99
2023-05-17T05:15:04.600Z,45.91
2023-05-17T05:17:31.475Z,45.90
2023-05-17T05:19:58.389Z,45.88
2023-05-17T05:22:25.719Z,45.77
2023-05-17T05:24:52.479Z,45.30
2023-05-17T05:27:18.995Z,45.89
2023-05-17T05:29:46.261Z,45.71
2023-05-17T05:32:17.207Z,45.55
2023-05-17T05:34:44.996Z,45.79
2023-05-17T05:37:11.474Z,45.83
2023-05-17T05:39:38.217Z,45.83
2023-05-17T05:42:05.081Z,45.65
2023-05-17T05:44:31.720Z,45.83
2023-05-17T05:46:58.315Z,46.01
2023-05-17T05:49:26.216Z,45.76
2023-05-17T05:51:52.661Z,45.72
2023-05-17T05:54:19.088Z,45.65
2023-05-17T05:56:45.835Z,45.71
2023-05-17T05:59:12.464Z,44.98
2023-05-17T06:01:38.916Z,45.17
2023-05-17T06:04:05.608Z,44.96
2023-05-17T06:06:32.213Z,45.03
2023-05-17T06:08:59.735Z,44.99
2023-05-17T06:11:26.501Z,44.78
2023-05-17T06:13:52.914Z,44.80
2023-05-17T06:16:19.394Z,44.33
2023-05-17T06:18:47.954Z,44.55
2023-05-17T06:21:17.697Z,44.31
2023-05-17T06:23:44.069Z,44.53
2023-05-17T06:26:11.459Z,43.85
2023-05-17T06:28:38.393Z,44.18
2023-05-17T06:31:05.082Z,43.74
2023-05-17T06:33:31.572Z,43.88
2023-05-17T06:35:58.715Z,43.45
2023-05-17T06:38:28.081Z,43.40
2023-05-17T06:40:57.507Z,42.84
2023-05-17T06:43:24.525Z,42.97
2023-05-17T06:45:51.498Z,42.22
2023-05-17T06:48:18.203Z,42.20
2023-05-17T06:50:44.744Z,42.23
2023-05-17T06:53:11.227Z,41.99
2023-05-17T06:55:37.926Z,41.42
2023-05-17T06:58:04.359Z,41.61
2023-05-17T07:00:31.930Z,41.71
2023-05-17T07:02:59.129Z,41.09
2023-05-17T07:05:26.878Z,40.85
2023-05-17T07:07:53.340Z,41.22
2023-05-17T07:10:20.088Z,40.78
2023-05-17T07:12:48.564Z,41.06
2023-05-17T07:15:15.818Z,41.00
2023-05-17T07:17:42.329Z,41.05
2023-05-17T07:20:09.491Z,40.33
2023-05-17T07:22:37.061Z,40.32
2023-05-17T07:25:06.753Z,40.21
2023-05-17T07:27:33.232Z,40.21
2023-05-17T07:30:00.870Z,40.20
2023-05-17T07:32:27.359Z,40.19
2023-05-17T07:34:54.418Z,39.96
2023-05-17T07:37:21.007Z,39.43
2023-05-17T07:39:48.330Z,39.96
2023-05-17T07:42:14.753Z,39.38
2023-05-17T07:44:41.214Z,39.25
2023-05-17T07:47:07.968Z,38.78
2023-05-17T07:49:34.519Z,38.78
2023-05-17T07:52:03.906Z,38.61
2023-05-17T07:54:31.902Z,38.85
2023-05-17T07:56:59.616Z,38.03
2023-05-17T07:59:26.332Z,37.49
2023-05-17T08:01:54.417Z,37.48
2023-05-17T08:04:21.164Z,37.00
2023-05-17T08:06:48.429Z,36.84
2023-05-17T08:09:16.600Z,37.19
2023-05-17T08:11:46.709Z,37.24
2023-05-17T08:14:17.311Z,37.06
2023-05-17T08:16:47.282Z,36.96
2023-05-17T08:19:16.606Z,37.14
2023-05-17T08:21:43.970Z,36.77
2023-05-17T08:24:10.719Z,36.46
2023-05-17T08:26:38.380Z,36.83
2023-05-17T08:29:05.021Z,36.84
2023-05-17T08:31:32.458Z,36.74
2023-05-17T08:33:59.264Z,36.64
2023-05-17T08:36:25.996Z,36.10
2023-05-17T08:38:53.008Z,36.10
2023-05-17T08:41:20.793Z,35.97
2023-05-17T08:43:49.498Z,35.57
2023-05-17T08:46:18.758Z,35.65
2023-05-17T08:48:46.918Z,35.13
2023-05-17T08:51:14.605Z,35.12
2023-05-17T08:53:42.376Z,35.12
2023-05-17T08:56:11.547Z,35.03
2023-05-17T08:58:55.391Z,34.64
2023-05-17T09:01:25.826Z,35.38
2023-05-17T09:03:54.023Z,34.97
2023-05-17T09:06:22.433Z,34.90
2023-05-17T09:08:55.065Z,33.91
2023-05-17T09:11:28.114Z,33.91
2023-05-17T09:13:58.559Z,34.03
2023-05-17T09:16:26.445Z,34.38
2023-05-17T09:18:55.835Z,34.01
2023-05-17T09:21:24.614Z,33.89
2023-05-17T09:24:04.848Z,33.61
2023-05-17T09:26:40.485Z,32.78
2023-05-17T09:29:15.562Z,33.01
2023-05-17T09:31:43.415Z,33.03
2023-05-17T09:34:10.640Z,32.88
2023-05-17T09:36:39.696Z,32.97
2023-05-17T09:39:10.743Z,32.50
2023-05-17T09:41:45.842Z,31.96
2023-05-17T09:44:13.345Z,32.06
2023-05-17T09:46:46.259Z,32.24
2023-05-17T09:49:16.076Z,32.14
2023-05-17T09:51:48.351Z,32.15
2023-05-17T09:54:15.073Z,32.40
2023-05-17T09:56:42.165Z,32.65
2023-05-17T09:59:14.076Z,32.23
2023-05-17T10:01:42.666Z,32.18
2023-05-17T10:04:11.072Z,32.51
2023-05-17T10:06:46.513Z,33.42
2023-05-17T10:09:18.785Z,31.91
2023-05-17T10:11:47.566Z,32.57
2023-05-17T10:14:22.580Z,32.38
2023-05-17T10:16:51.158Z,32.62
2023-05-17T10:19:20.229Z,32.52
2023-05-17T10:21:54.616Z,32.60
2023-05-17T10:24:24.520Z,32.77
2023-05-17T10:26:52.149Z,32.80
2023-05-17T10:29:20.874Z,32.81
2023-05-17T10:31:50.930Z,32.60
2023-05-17T10:34:19.053Z,32.72
2023-05-17T10:36:46.449Z,32.51
2023-05-17T10:39:13.235Z,32.70
2023-05-17T10:41:44.795Z,31.50
2023-05-17T10:44:14.632Z,31.77
2023-05-17T10:46:50.685Z,31.65
2023-05-17T10:49:22.128Z,31.70
2023-05-17T10:51:51.602Z,31.59
2023-05-17T10:54:18.655Z,31.71
2023-05-17T10:56:52.348Z,31.88
2023-05-17T10:59:23.850Z,32.12
2023-05-17T11:02:04.781Z,32.11
2023-05-17T11:04:44.951Z,32.26
2023-05-17T11:07:19.034Z,32.34
2023-05-17T11:09:53.879Z,31.38
2023-05-17T11:12:33.340Z,31.69
2023-05-17T11:15:00.735Z,30.79
2023-05-17T11:17:33.908Z,31.61
2023-05-17T11:20:27.664Z,31.32
2023-05-17T11:23:16.026Z,31.18
2023-05-17T11:25:42.763Z,31.48
2023-05-17T11:28:21.543Z,31.10
2023-05-17T11:30:54.177Z,31.46
2023-05-17T11:33:37.125Z,30.89
2023-05-17T11:36:15.623Z,30.19
2023-05-17T11:38:41.994Z,31.56
2023-05-17T11:43:52.319Z,30.36
2023-05-17T11:46:21.650Z,30.14
2023-05-17T11:48:50.727Z,29.79
2023-05-17T11:51:17.907Z,29.88
2023-05-17T11:53:44.940Z,29.65
2023-05-17T11:56:11.856Z,29.52
2023-05-17T11:58:38.682Z,29.49
2023-05-17T12:01:06.529Z,29.99
2023-05-17T12:03:33.865Z,30.14
2023-05-17T12:06:06.963Z,29.70
2023-05-17T12:08:35.336Z,29.78
2023-05-17T12:11:02.285Z,30.40
2023-05-17T12:13:30.332Z,30.08
2023-05-17T12:16:00.448Z,30.38
2023-05-17T12:18:48.708Z,30.17
2023-05-17T12:21:16.156Z,31.20
2023-05-17T12:23:44.093Z,30.00
2023-05-17T12:26:11.725Z,30.21
2023-05-17T12:28:41.862Z,29.71
2023-05-17T12:31:14.079Z,29.52
2023-05-17T12:33:43.245Z,29.41
2023-05-17T12:36:13.575Z,29.80
2023-05-17T12:38:44.646Z,29.50
2023-05-17T12:41:12.929Z,29.85
2023-05-17T12:43:40.400Z,29.77
2023-05-17T12:46:17.807Z,29.50
2023-05-17T12:48:44.923Z,29.57
2023-05-17T12:51:18.495Z,29.12
2023-05-17T12:53:50.037Z,29.32
2023-05-17T12:56:18.864Z,29.46
2023-05-17T12:59:04.531Z,29.61
2023-05-17T13:01:52.410Z,29.01
2023-05-17T13:04:22.339Z,29.56
2023-05-17T13:06:53.833Z,29.12
2023-05-17T13:09:22.469Z,29.42
2023-05-17T13:11:56.001Z,30.11
2023-05-17T13:14:39.112Z,29.33
2023-05-17T13:17:27.287Z,28.98
2023-05-17T13:19:57.065Z,29.02
2023-05-17T13:22:25.442Z,29.33
2023-05-17T13:24:53.712Z,29.46
2023-05-17T13:27:20.258Z,29.50
2023-05-17T13:29:46.970Z,29.37
2023-05-17T13:32:14.012Z,29.44
2023-05-17T13:34:41.271Z,29.37
2023-05-17T13:37:11.506Z,28.99
2023-05-17T13:39:38.921Z,29.01
2023-05-17T13:42:05.716Z,29.39
2023-05-17T13:44:32.493Z,29.16
2023-05-17T13:46:58.898Z,29.15
2023-05-17T13:49:25.881Z,29.47
2023-05-17T13:51:52.229Z,29.57
2023-05-17T13:54:20.571Z,29.38
2023-05-17T13:56:47.040Z,29.39
2023-05-17T13:59:14.090Z,29.17
2023-05-17T14:01:44.119Z,28.92
2023-05-17T14:04:11.507Z,28.84
2023-05-17T14:06:39.341Z,28.33
2023-05-17T14:09:06.622Z,28.69
2023-05-17T14:11:36.343Z,28.39
2023-05-17T14:14:04.170Z,28.32
2023-05-17T14:16:31.417Z,28.97
2023-05-17T14:18:58.612Z,28.46
2023-05-17T14:21:26.508Z,28.57
2023-05-17T14:23:52.949Z,28.81
2023-05-17T14:26:19.644Z,28.90
2023-05-17T14:28:46.071Z,28.95
2023-05-17T14:31:12.514Z,28.82
2023-05-17T14:33:38.941Z,28.49
2023-05-17T14:36:05.582Z,28.53
2023-05-17T14:38:32.126Z,28.65
2023-05-17T14:41:03.029Z,28.68
2023-05-17T14:43:29.637Z,28.63
2023-05-17T14:45:56.364Z,28.55
2023-05-17T14:48:23.130Z,28.71
2023-05-17T14:50:49.820Z,28.38
2023-05-17T14:53:16.786Z,28.47
2023-05-17T14:55:43.532Z,28.59
2023-05-17T14:58:13.021Z,28.56
2023-05-17T15:00:41.544Z,28.92
2023-05-17T15:03:08.881Z,28.67
2023-05-17T15:05:35.648Z,28.51
2023-05-17T15:08:03.472Z,28.27
2023-05-17T15:10:30.354Z,28.01
2023-05-17T15:12:57.011Z,28.82
2023-05-17T15:15:23.492Z,28.48
2023-05-17T15:17:50.199Z,28.48
2023-05-17T15:20:18.911Z,28.41
2023-05-17T15:22:45.960Z,28.21
2023-05-17T15:25:13.608Z,28.52
2023-05-17T15:27:40.026Z,28.46
2023-05-17T15:30:07.268Z,27.79
2023-05-17T15:32:34.128Z,28.09
2023-05-17T15:35:00.576Z,28.11
2023-05-17T15:37:27.250Z,28.13
2023-05-17T15:39:53.709Z,28.44
2023-05-17T15:42:20.071Z,28.44
2023-05-17T15:44:47.773Z,28.42
2023-05-17T15:47:14.333Z,28.48
2023-05-17T15:49:41.258Z,28.13
2023-05-17T15:52:07.915Z,28.31
2023-05-17T15:54:34.329Z,28.30
2023-05-17T15:57:00.742Z,27.92
2023-05-17T15:59:28.436Z,27.94
2023-05-17T16:01:54.833Z,28.10
2023-05-17T16:04:21.264Z,28.37
2023-05-17T16:06:47.983Z,28.43
2023-05-17T16:09:14.493Z,28.08
2023-05-17T16:11:41.176Z,28.10
2023-05-17T16:14:09.258Z,27.99
2023-05-17T16:16:35.851Z,28.08
2023-05-17T16:19:04.750Z,27.83
2023-05-17T16:21:32.143Z,27.95
2023-05-17T16:23:58.759Z,27.73
2023-05-17T16:26:25.149Z,27.91
2023-05-17T16:28:52.173Z,27.75
2023-05-17T16:31:18.909Z,27.81
2023-05-17T16:33:45.811Z,27.59
2023-05-17T16:36:12.408Z,27.40
2023-05-17T16:38:39.078Z,27.81
2023-05-17T16:41:05.769Z,27.77
2023-05-17T16:43:32.300Z,27.66
2023-05-17T16:45:58.938Z,27.84
2023-05-17T16:48:25.878Z,28.03
2023-05-17T16:50:52.405Z,28.07
2023-05-17T16:53:18.973Z,27.77
2023-05-17T16:55:45.856Z,28.01
2023-05-17T16:58:12.570Z,28.18
2023-05-17T17:00:39.249Z,27.99
2023-05-17T17:03:09.004Z,27.92
2023-05-17T17:05:36.467Z,28.36
2023-05-17T17:08:02.977Z,28.49
2023-05-17T17:10:29.774Z,27.93
2023-05-17T17:12:56.452Z,27.94
2023-05-17T17:15:23.915Z,28.24
2023-05-17T17:17:50.726Z,28.07
2023-05-17T17:20:18.672Z,27.95
2023-05-17T17:22:45.272Z,28.11
2023-05-17T17:25:11.761Z,28.26
2023-05-17T17:27:38.455Z,28.25
2023-05-17T17:30:06.428Z,28.25
2023-05-17T17:32:33.353Z,28.04
2023-05-17T17:35:00.169Z,28.04
2023-05-17T17:37:26.676Z,28.09
2023-05-17T17:39:53.066Z,27.90
2023-05-17T17:42:20.040Z,28.02
2023-05-17T17:44:46.765Z,27.98
2023-05-17T17:47:13.414Z,28.26
2023-05-17T17:49:40.017Z,28.26
2023-05-17T17:52:07.962Z,28.17
2023-05-17T17:54:34.692Z,28.20
2023-05-17T17:57:02.356Z,28.34
2023-05-17T17:59:29.085Z,28.19
2023-05-17T18:01:55.769Z,28.38
2023-05-17T18:04:22.204Z,28.62
2023-05-17T18:06:50.091Z,28.61
2023-05-17T18:09:16.864Z,28.90
2023-05-17T18:11:43.291Z,28.91
2023-05-17T18:14:09.705Z,28.86
2023-05-17T18:16:36.070Z,29.04
2023-05-17T18:19:02.515Z,28.93
2023-05-17T18:21:33.575Z,28.72
2023-05-17T18:24:00.232Z,28.92
2023-05-17T18:26:27.244Z,28.80
2023-05-17T18:28:53.655Z,28.93
2023-05-17T18:31:20.257Z,28.84
2023-05-17T18:33:46.757Z,28.83
2023-05-17T18:36:14.385Z,28.93
2023-05-17T18:38:40.780Z,28.89
2023-05-17T18:41:07.211Z,29.03
2023-05-17T18:43:34.805Z,29.23
2023-05-17T18:46:01.384Z,29.28
2023-05-17T18:48:28.427Z,29.44
2023-05-17T18:50:57.414Z,29.38
2023-05-17T18:53:25.243Z,29.50
2023-05-17T18:55:51.679Z,29.57
2023-05-17T18:58:18.087Z,29.86
2023-05-17T19:00:48.098Z,29.82
2023-05-17T19:03:16.294Z,29.55
2023-05-17T19:05:45.324Z,29.58
2023-05-17T19:08:11.722Z,29.72
2023-05-17T19:10:39.681Z,29.76
2023-05-17T19:13:09.131Z,29.65
2023-05-17T19:15:35.676Z,29.71
2023-05-17T19:18:02.046Z,29.83
2023-05-17T19:20:28.709Z,29.51
2023-05-17T19:22:55.598Z,29.53
2023-05-17T19:25:22.051Z,29.62
2023-05-17T19:27:48.504Z,29.69
2023-05-17T19:30:16.245Z,29.73
2023-05-17T19:32:42.875Z,30.12
2023-05-17T19:35:09.970Z,30.05
2023-05-17T19:37:36.693Z,30.27
2023-05-17T19:40:05.869Z,30.17
2023-05-17T19:42:32.370Z,30.40
2023-05-17T19:44:59.169Z,30.31
2023-05-17T19:47:25.833Z,30.58
2023-05-17T19:49:54.600Z,30.53
2023-05-17T19:52:21.411Z,30.92
2023-05-17T19:54:47.869Z,30.74
2023-05-17T19:57:14.617Z,30.65
2023-05-17T19:59:41.888Z,30.93
2023-05-17T20:02:08.684Z,31.24
2023-05-17T20:04:35.406Z,31.08
2023-05-17T20:07:02.022Z,31.03
2023-05-17T20:09:30.346Z,31.04
2023-05-17T20:11:58.627Z,31.12
2023-05-17T20:14:25.150Z,30.89
2023-05-17T20:16:51.689Z,31.20
2023-05-17T20:19:18.289Z,31.42
2023-05-17T20:21:46.683Z,30.94
2023-05-17T20:24:13.458Z,31.24
2023-05-17T20:26:40.164Z,31.62
2023-05-17T20:29:08.199Z,31.39
2023-05-17T20:31:36.522Z,31.51
2023-05-17T20:34:06.306Z,31.61
2023-05-17T20:36:33.316Z,31.75
2023-05-17T20:38:59.826Z,31.95
2023-05-17T20:41:26.313Z,31.57
2023-05-17T20:43:54.493Z,31.75
2023-05-17T20:46:21.606Z,31.81
2023-05-17T20:48:49.911Z,31.68
2023-05-17T20:51:18.180Z,31.95
2023-05-17T20:53:46.919Z,32.08
2023-05-17T20:56:19.224Z,32.04
2023-05-17T20:58:46.941Z,32.22
2023-05-17T21:01:13.821Z,31.96
2023-05-17T21:03:41.056Z,32.01
2023-05-17T21:06:08.225Z,32.09
2023-05-17T21:08:35.589Z,32.47
2023-05-17T21:11:02.040Z,32.46
2023-05-17T21:13:28.407Z,32.24
2023-05-17T21:15:55.616Z,32.58
2023-05-17T21:18:23.507Z,32.16
2023-05-17T21:20:51.317Z,32.69
2023-05-17T21:23:18.979Z,32.33
2023-05-17T21:25:45.753Z,32.71
2023-05-17T21:28:13.573Z,32.70
2023-05-17T21:30:40.207Z,32.83
2023-05-17T21:33:07.317Z,32.60
2023-05-17T21:35:33.942Z,32.59
2023-05-17T21:38:00.711Z,32.74
2023-05-17T21:40:27.170Z,32.67
2023-05-17T21:42:53.764Z,32.94
2023-05-17T21:45:20.400Z,33.00
2023-05-17T21:47:47.257Z,32.92
2023-05-17T21:50:13.834Z,32.94
2023-05-17T21:52:40.699Z,33.31
2023-05-17T21:55:07.709Z,33.36
2023-05-17T21:57:36.477Z,33.08
2023-05-17T22:00:05.834Z,33.11
2023-05-17T22:02:34.583Z,33.35
2023-05-17T22:05:01.531Z,33.46
2023-05-17T22:07:28.110Z,33.32
2023-05-17T22:09:55.154Z,33.33
2023-05-17T22:12:25.330Z,33.12
2023-05-17T22:14:53.619Z,33.45
2023-05-17T22:17:29.663Z,33.73
2023-05-17T22:20:00.445Z,33.63
2023-05-17T22:22:27.311Z,33.65
2023-05-17T22:24:54.197Z,33.91
2023-05-17T22:27:21.869Z,33.56
2023-05-17T22:29:49.071Z,33.66
2023-05-17T22:32:16.221Z,33.79
2023-05-17T22:34:45.890Z,34.01
2023-05-17T22:37:12.416Z,34.21
2023-05-17T22:39:42.309Z,34.15
2023-05-17T22:42:09.511Z,34.29
2023-05-17T22:44:37.279Z,34.26
2023-05-17T22:47:04.917Z,34.38
2023-05-17T22:49:36.084Z,34.56
2023-05-17T22:52:07.774Z,34.70
2023-05-17T22:54:36.162Z,34.65
2023-05-17T22:57:05.729Z,34.56
2023-05-17T22:59:33.524Z,34.58
2023-05-17T23:02:00.966Z,35.02
2023-05-17T23:04:27.707Z,34.68
2023-05-17T23:06:54.950Z,34.87
2023-05-17T23:09:22.090Z,34.88
2023-05-17T23:11:49.985Z,34.73
2023-05-17T23:14:17.807Z,34.77
2023-05-17T23:16:44.215Z,35.02
2023-05-17T23:19:10.745Z,34.99
2023-05-17T23:21:37.610Z,35.13
2023-05-17T23:24:04.179Z,35.24
2023-05-17T23:26:31.043Z,34.94
2023-05-17T23:28:58.019Z,35.14
2023-05-17T23:31:25.831Z,35.42
2023-05-17T23:33:52.647Z,35.55
2023-05-17T23:36:21.598Z,35.55
2023-05-17T23:38:48.050Z,35.39
2023-05-17T23:41:18.362Z,35.31
2023-05-17T23:43:45.357Z,35.57
2023-05-17T23:46:13.670Z,35.67
2023-05-17T23:48:40.269Z,35.54
2023-05-17T23:51:06.721Z,35.64
2023-05-17T23:53:34.227Z,35.81
2023-05-17T23:56:01.179Z,36.05
2023-05-17T23:58:27.591Z,35.79
